Archival Weather

Fukuoka

Fukuoka, Japan (RJFF)

Report from: Tuesday, August 16, 2022 12:30 AM JST
Current time: Sunday, November 27, 2022 6:28 PM JST

Current weather
Weather history
Weather forecast

Temperature29.0°C (84.2°F)
Heat index34.6°C (94.3°F)
Dew point25.0°C (77.0°F)
Winds 11 kts (5.7 m/s, 12.7 mph) South-Southeast (160°)
Visibility6.2 mi. (10 km)
Altimeter29.71 in.Hg (1006 mB)
Relative humidity79 %
Density altitude2,275 ft. (693 m)
Remarks Fully automated report
No significant changes expected in the next two hours
Flight conditions Visual Meteorological Conditions
Raw dataRJFF 151530Z AUTO 16011KT 9999 NSC 29/25 Q1006 NOSIG
An error has occurred. This application may no longer respond until reloaded. Reload 🗙